Time;durP1;ratioP1;P1;durP2;ratioP2;P2;SDS_P1;SDS_P2;PMS_P1;PMS_P2;Temp;Humidity;BMP_temperature;BMP_pressure;BME280_temperature;BME280_humidity;BME280_pressure;Samples;Min_cycle;Max_cycle;Signal;HPM_P1;HPM_P2
2022/03/14 00:01:37;;;;;;;;;;;;;;;-0.56;100.00;98559.78;10470888;28;20028;-82
2022/03/14 00:06:37;;;;;;;;;;;;;;;-0.59;100.00;98563.72;10474484;28;19929;-81
2022/03/14 00:11:38;;;;;;;;;;;;;;;-0.61;100.00;98570.28;10460683;28;19923;-84
2022/03/14 00:16:41;;;;;;;;;;;;;;;-0.65;100.00;98580.50;10467172;28;19923;-84
2022/03/14 00:21:41;;;;;;;;;;;;;;;-0.61;100.00;98588.75;10449797;28;19927;-83
2022/03/14 00:26:43;;;;;;;;;;;;;;;-0.70;100.00;98590.97;10478819;28;19921;-81
2022/03/14 00:31:45;;;;;;;;;;;;;;;-0.76;100.00;98601.69;10426429;28;19936;-82
2022/03/14 00:36:45;;;;;;;;;;;;;;;-0.82;100.00;98598.19;10443307;28;19968;-83
2022/03/14 00:41:46;;;;;;;;;;;;;;;-0.96;100.00;98610.88;10450669;28;19955;-82
2022/03/14 00:46:48;;;;;;;;;;;;;;;-1.03;100.00;98599.69;10489531;28;19991;-82
2022/03/14 00:51:50;;;;;;;;;;;;;;;-1.06;100.00;98609.94;10483811;28;19913;-81
2022/03/14 00:56:50;;;;;;;;;;;;;;;-1.02;100.00;98613.66;10447805;28;20462;-81
2022/03/14 01:01:58;;;;;;;;;;;;;;;-0.95;100.00;98616.94;10381866;28;19988;-80
2022/03/14 01:07:02;;;;;;;;;;;;;;;-1.00;100.00;98615.03;10437422;28;20380;-80
2022/03/14 01:12:04;;;;;;;;;;;;;;;-1.16;100.00;98621.09;10439962;28;19935;-80
2022/03/14 01:17:05;;;;;;;;;;;;;;;-1.23;100.00;98623.88;10429804;28;19940;-81
2022/03/14 01:22:10;;;;;;;;;;;;;;;-1.22;100.00;98620.19;10453016;28;20312;-82
2022/03/14 01:27:11;;;;;;;;;;;;;;;-1.23;100.00;98621.25;10403096;28;19936;-80
2022/03/14 01:32:14;;;;;;;;;;;;;;;-1.21;100.00;98639.44;10404392;28;19929;-82
2022/03/14 01:37:18;;;;;;;;;;;;;;;-1.27;100.00;98643.81;10425347;28;20004;-81
2022/03/14 01:42:20;;;;;;;;;;;;;;;-1.20;100.00;98641.03;10431042;28;19940;-80
2022/03/14 01:47:21;;;;;;;;;;;;;;;-1.18;100.00;98649.50;10452468;28;19928;-79
2022/03/14 01:52:23;;;;;;;;;;;;;;;-1.18;100.00;98670.56;10448305;28;19933;-80
2022/03/14 01:57:24;;;;;;;;;;;;;;;-1.05;100.00;98662.38;10461848;28;19960;-81
2022/03/14 02:02:24;;;;;;;;;;;;;;;-1.09;100.00;98673.63;10428275;28;19933;-79
2022/03/14 02:07:26;;;;;;;;;;;;;;;-1.17;100.00;98694.03;10453722;28;21210;-80
2022/03/14 02:12:26;;;;;;;;;;;;;;;-1.31;100.00;98692.72;10454957;28;19952;-82
2022/03/14 02:17:27;;;;;;;;;;;;;;;-1.46;100.00;98692.44;10477879;28;19928;-81
2022/03/14 02:22:29;;;;;;;;;;;;;;;-1.52;100.00;98707.34;10458783;28;19925;-82
2022/03/14 02:27:30;;;;;;;;;;;;;;;-1.05;100.00;98715.03;10470226;28;19913;-81
2022/03/14 02:32:31;;;;;;;;;;;;;;;-1.00;100.00;98735.44;10468708;28;19935;-80
2022/03/14 02:37:32;;;;;;;;;;;;;;;-1.10;100.00;98751.81;10445280;28;19932;-79
2022/03/14 02:42:33;;;;;;;;;;;;;;;-1.07;100.00;98753.19;10444158;28;19993;-81
2022/03/14 02:47:34;;;;;;;;;;;;;;;-1.30;100.00;98761.97;10454504;28;19929;-79
2022/03/14 02:52:35;;;;;;;;;;;;;;;-1.41;100.00;98789.13;10461202;28;19992;-81
2022/03/14 02:57:36;;;;;;;;;;;;;;;-1.50;100.00;98807.13;10480258;28;19920;-81
2022/03/14 03:02:42;;;;;;;;;;;;;;;-1.55;100.00;98810.47;10442257;28;19929;-80
2022/03/14 03:07:43;;;;;;;;;;;;;;;-1.58;100.00;98815.38;10441995;28;19924;-80
2022/03/14 03:12:45;;;;;;;;;;;;;;;-1.65;100.00;98833.09;10449150;28;20266;-79
2022/03/14 03:17:46;;;;;;;;;;;;;;;-1.75;100.00;98833.69;10403345;28;19935;-80
2022/03/14 03:22:46;;;;;;;;;;;;;;;-1.78;100.00;98845.47;10447898;28;19929;-82
2022/03/14 03:27:47;;;;;;;;;;;;;;;-1.72;100.00;98859.56;10437771;28;19980;-81
2022/03/14 03:32:51;;;;;;;;;;;;;;;-1.84;100.00;98879.78;10422195;28;19928;-82
2022/03/14 03:37:53;;;;;;;;;;;;;;;-1.83;100.00;98881.38;10407530;28;19928;-82
2022/03/14 03:42:54;;;;;;;;;;;;;;;-1.68;100.00;98892.25;10423525;28;19932;-82
2022/03/14 03:47:55;;;;;;;;;;;;;;;-1.55;100.00;98899.94;10434006;28;19932;-80
2022/03/14 03:52:55;;;;;;;;;;;;;;;-1.29;100.00;98903.13;10441208;28;19941;-81
2022/03/14 03:57:56;;;;;;;;;;;;;;;-1.22;100.00;98914.34;10457900;28;19936;-81
2022/03/14 04:02:57;;;;;;;;;;;;;;;-1.11;100.00;98939.06;10439806;28;19924;-80
2022/03/14 04:07:58;;;;;;;;;;;;;;;-0.83;100.00;98956.78;10447952;28;19960;-79
2022/03/14 04:13:04;;;;;;;;;;;;;;;-0.67;100.00;98956.06;10442784;28;19933;-80
2022/03/14 04:18:07;;;;;;;;;;;;;;;-0.62;100.00;98956.97;10464224;28;19929;-79
2022/03/14 04:23:08;;;;;;;;;;;;;;;-0.47;100.00;98972.28;10456644;28;19939;-81
2022/03/14 04:28:08;;;;;;;;;;;;;;;-0.46;100.00;98981.00;10436982;28;19957;-83
2022/03/14 04:33:11;;;;;;;;;;;;;;;-0.36;100.00;98986.50;10472479;28;19928;-81
2022/03/14 04:38:12;;;;;;;;;;;;;;;-0.30;100.00;98994.25;10453616;28;19917;-81
2022/03/14 04:43:14;;;;;;;;;;;;;;;-0.35;100.00;99006.53;10434170;28;20011;-82
2022/03/14 04:48:17;;;;;;;;;;;;;;;-0.18;100.00;98998.66;10432065;28;20348;-81
2022/03/14 04:53:18;;;;;;;;;;;;;;;-0.27;100.00;99016.72;10439611;28;19959;-82
2022/03/14 04:58:19;;;;;;;;;;;;;;;-0.20;100.00;99012.09;10441282;28;19988;-82
2022/03/14 05:03:20;;;;;;;;;;;;;;;-0.26;100.00;99017.53;10445930;28;19929;-82
2022/03/14 05:08:47;;;;;;;;;;;;;;;-0.12;100.00;99022.28;10442116;28;20350;-81
2022/03/14 05:13:48;;;;;;;;;;;;;;;-0.04;100.00;99016.63;10417460;28;19992;-82
2022/03/14 05:18:51;;;;;;;;;;;;;;;0.09;100.00;99005.00;10453870;28;19929;-81
2022/03/14 05:23:51;;;;;;;;;;;;;;;0.32;100.00;99021.75;10429613;28;20034;-79
2022/03/14 05:28:53;;;;;;;;;;;;;;;0.39;99.78;99017.13;10428369;28;19964;-81
2022/03/14 05:33:55;;;;;;;;;;;;;;;0.56;100.00;99017.97;10396542;28;19932;-79
2022/03/14 05:38:55;;;;;;;;;;;;;;;0.61;95.03;99018.03;10432588;28;19925;-79
2022/03/14 05:43:56;;;;;;;;;;;;;;;0.60;93.83;99021.72;10392136;28;19961;-81
2022/03/14 05:48:56;;;;;;;;;;;;;;;0.73;97.41;99050.47;10420267;28;19994;-80
2022/03/14 05:53:56;;;;;;;;;;;;;;;0.71;96.50;99073.66;10397869;28;19929;-79
2022/03/14 05:59:00;;;;;;;;;;;;;;;0.67;100.00;99106.09;10431776;28;20027;-78
2022/03/14 06:04:01;;;;;;;;;;;;;;;0.71;100.00;99126.50;10418814;28;19929;-81
2022/03/14 06:09:02;;;;;;;;;;;;;;;0.66;100.00;99139.63;10430034;28;19955;-80
2022/03/14 06:14:06;;;;;;;;;;;;;;;0.67;100.00;99143.88;10460798;28;19929;-78
2022/03/14 06:19:08;;;;;;;;;;;;;;;0.63;100.00;99160.41;10442134;28;19929;-81
2022/03/14 06:24:11;;;;;;;;;;;;;;;0.69;100.00;99170.06;10461130;28;19929;-82
2022/03/14 06:29:18;;;;;;;;;;;;;;;0.81;100.00;99187.44;10429975;28;19929;-77
2022/03/14 06:34:23;;;;;;;;;;;;;;;0.94;100.00;99189.00;10453932;28;19936;-79
2022/03/14 06:39:24;;;;;;;;;;;;;;;1.04;100.00;99199.75;10432848;28;19984;-82
2022/03/14 06:44:27;;;;;;;;;;;;;;;1.20;100.00;99213.25;10460545;28;19925;-84
2022/03/14 06:49:28;;;;;;;;;;;;;;;1.20;100.00;99231.75;10486695;28;19995;-89
2022/03/14 06:54:30;;;;;;;;;;;;;;;1.19;100.00;99233.59;10444257;28;20588;-84
2022/03/14 06:59:34;;;;;;;;;;;;;;;1.24;100.00;99232.88;10412563;28;19913;-81
2022/03/14 07:04:34;;;;;;;;;;;;;;;1.25;100.00;99245.06;10460701;28;19933;-79
2022/03/14 07:09:43;;;;;;;;;;;;;;;1.33;100.00;99255.25;10409050;28;19932;-79
2022/03/14 07:14:47;;;;;;;;;;;;;;;1.13;100.00;99267.06;10429488;28;19941;-77
2022/03/14 07:19:48;;;;;;;;;;;;;;;1.03;100.00;99274.81;10419087;28;19999;-77
2022/03/14 07:24:48;;;;;;;;;;;;;;;1.17;100.00;99309.69;10438174;28;19971;-78
2022/03/14 07:29:50;;;;;;;;;;;;;;;1.25;100.00;99325.19;10424151;28;19929;-77
2022/03/14 07:34:52;;;;;;;;;;;;;;;1.35;100.00;99324.56;10457267;28;19929;-77
2022/03/14 07:39:53;;;;;;;;;;;;;;;1.31;100.00;99332.19;10470813;28;19991;-82
2022/03/14 07:44:55;;;;;;;;;;;;;;;1.50;100.00;99355.78;10431853;28;19929;-79
2022/03/14 07:49:55;;;;;;;;;;;;;;;1.85;100.00;99356.41;10433664;28;20012;-79
2022/03/14 07:54:57;;;;;;;;;;;;;;;2.05;100.00;99363.09;10432871;28;20288;-79
2022/03/14 07:59:59;;;;;;;;;;;;;;;2.09;100.00;99358.91;10461163;28;19933;-78
2022/03/14 08:04:59;;;;;;;;;;;;;;;2.32;100.00;99358.75;10422631;28;19935;-81
2022/03/14 08:10:00;;;;;;;;;;;;;;;2.41;100.00;99359.13;10455449;28;19940;-79
2022/03/14 08:15:00;;;;;;;;;;;;;;;2.47;100.00;99366.94;10465204;28;19928;-82
2022/03/14 08:20:01;;;;;;;;;;;;;;;2.59;100.00;99392.53;10433215;28;19933;-79
2022/03/14 08:25:03;;;;;;;;;;;;;;;2.85;100.00;99405.09;10414937;28;19974;-80
2022/03/14 08:30:04;;;;;;;;;;;;;;;2.95;100.00;99407.88;10433972;28;19988;-81
2022/03/14 08:35:10;;;;;;;;;;;;;;;3.05;100.00;99408.00;10435561;28;20020;-80
2022/03/14 08:40:11;;;;;;;;;;;;;;;3.41;100.00;99408.44;10421354;28;19932;-82
2022/03/14 08:45:13;;;;;;;;;;;;;;;3.95;100.00;99419.09;10444152;28;20014;-78
2022/03/14 08:50:15;;;;;;;;;;;;;;;3.98;100.00;99419.38;10449296;28;19926;-79
2022/03/14 08:55:22;;;;;;;;;;;;;;;4.12;100.00;99429.63;10429539;28;19929;-80
2022/03/14 09:00:24;;;;;;;;;;;;;;;4.28;100.00;99429.47;10433016;28;19988;-78
2022/03/14 09:05:26;;;;;;;;;;;;;;;4.69;100.00;99427.16;10415755;28;20059;-80
2022/03/14 09:10:26;;;;;;;;;;;;;;;5.10;100.00;99435.34;10434632;28;19924;-80
2022/03/14 09:15:27;;;;;;;;;;;;;;;5.62;100.00;99445.97;10429115;28;20035;-80
2022/03/14 09:20:28;;;;;;;;;;;;;;;6.05;100.00;99440.53;10419687;28;19929;-81
2022/03/14 09:25:28;;;;;;;;;;;;;;;6.19;100.00;99454.91;10427611;28;19943;-80
2022/03/14 09:30:32;;;;;;;;;;;;;;;6.52;100.00;99458.94;10446706;28;20383;-79
2022/03/14 09:35:34;;;;;;;;;;;;;;;6.82;100.00;99460.78;10393356;28;19929;-79
2022/03/14 09:40:38;;;;;;;;;;;;;;;7.21;100.00;99465.50;10421192;28;19929;-81
2022/03/14 09:45:39;;;;;;;;;;;;;;;7.40;100.00;99466.50;10451922;28;19990;-80
2022/03/14 09:50:40;;;;;;;;;;;;;;;8.02;100.00;99457.13;10426920;28;19975;-79
2022/03/14 09:55:46;;;;;;;;;;;;;;;8.44;100.00;99451.28;10450064;28;19959;-83
2022/03/14 10:00:48;;;;;;;;;;;;;;;8.23;100.00;99455.16;10460423;28;19940;-83
2022/03/14 10:05:49;;;;;;;;;;;;;;;7.93;100.00;99474.84;10455277;28;19943;-79
2022/03/14 10:10:50;;;;;;;;;;;;;;;8.27;100.00;99481.03;10444763;28;19953;-82
2022/03/14 10:15:53;;;;;;;;;;;;;;;8.76;100.00;99474.00;10456998;28;19929;-82
2022/03/14 10:20:57;;;;;;;;;;;;;;;8.76;100.00;99474.81;10466653;28;19932;-80
2022/03/14 10:25:58;;;;;;;;;;;;;;;8.59;100.00;99484.31;10433558;28;19928;-80
2022/03/14 10:31:03;;;;;;;;;;;;;;;8.31;100.00;99497.31;10456945;28;19925;-80
2022/03/14 10:36:06;;;;;;;;;;;;;;;8.30;100.00;99519.81;10472595;28;19931;-81
2022/03/14 10:41:18;;;;;;;;;;;;;;;8.54;100.00;99517.28;10455216;28;19926;-81
2022/03/14 10:46:25;;;;;;;;;;;;;;;9.06;100.00;99511.22;10436545;28;20020;-77
2022/03/14 10:51:26;;;;;;;;;;;;;;;9.19;100.00;99508.97;10441831;28;19925;-82
2022/03/14 10:56:30;;;;;;;;;;;;;;;8.90;100.00;99519.69;10422576;28;19940;-82
2022/03/14 11:01:56;;;;;;;;;;;;;;;8.43;100.00;99543.31;10462519;28;19924;-84
2022/03/14 11:06:59;;;;;;;;;;;;;;;8.12;100.00;99545.31;10430903;28;19925;-79
2022/03/14 11:12:10;;;;;;;;;;;;;;;7.99;100.00;99565.44;10450906;28;19919;-80
2022/03/14 11:17:15;;;;;;;;;;;;;;;7.92;100.00;99561.44;10428063;28;19928;-80
2022/03/14 11:22:19;;;;;;;;;;;;;;;7.89;100.00;99562.81;10426131;28;19929;-79
2022/03/14 11:27:29;;;;;;;;;;;;;;;8.10;100.00;99576.09;10420386;28;20023;-79
2022/03/14 11:32:32;;;;;;;;;;;;;;;8.92;100.00;99565.72;10445110;28;20495;-80
2022/03/14 11:37:33;;;;;;;;;;;;;;;8.89;100.00;99544.84;10412329;28;19956;-81
2022/03/14 11:42:34;;;;;;;;;;;;;;;9.49;100.00;99553.38;10404047;28;19956;-79
2022/03/14 11:47:35;;;;;;;;;;;;;;;9.62;100.00;99540.13;10422341;28;19925;-81
2022/03/14 11:52:40;;;;;;;;;;;;;;;9.83;100.00;99527.28;10436921;28;19951;-80
2022/03/14 11:57:42;;;;;;;;;;;;;;;10.41;100.00;99513.63;10435714;28;19925;-79
2022/03/14 12:02:42;;;;;;;;;;;;;;;9.80;100.00;99508.28;10474762;28;19986;-85
2022/03/14 12:07:44;;;;;;;;;;;;;;;9.69;100.00;99515.63;10462531;28;19929;-83
2022/03/14 12:12:51;;;;;;;;;;;;;;;9.49;100.00;99521.22;10466751;28;19913;-83
2022/03/14 12:17:51;;;;;;;;;;;;;;;9.54;100.00;99524.66;10469760;28;19929;-81
2022/03/14 12:22:51;;;;;;;;;;;;;;;11.15;100.00;99505.72;10462455;28;20064;-84
2022/03/14 12:27:52;;;;;;;;;;;;;;;11.87;100.00;99503.25;10489483;28;19939;-84
2022/03/14 12:32:53;;;;;;;;;;;;;;;12.76;94.88;99497.22;10473098;28;19913;-85
2022/03/14 12:38:21;;;;;;;;;;;;;;;13.38;100.00;99501.84;10469806;28;19936;-84
2022/03/14 12:43:27;;;;;;;;;;;;;;;12.88;99.37;99495.84;10462621;28;19976;-80
2022/03/14 12:48:31;;;;;;;;;;;;;;;12.36;100.00;99500.88;10449767;28;19933;-85
2022/03/14 12:53:32;;;;;;;;;;;;;;;13.50;94.67;99487.78;10457789;28;19924;-80
2022/03/14 12:58:36;;;;;;;;;;;;;;;13.25;85.59;99479.25;10430946;28;19936;-80
2022/03/14 13:03:38;;;;;;;;;;;;;;;12.85;94.41;99478.41;10462712;28;20004;-82
2022/03/14 13:08:48;;;;;;;;;;;;;;;12.62;93.20;99480.34;10437172;28;19933;-83
2022/03/14 13:13:53;;;;;;;;;;;;;;;11.08;99.14;99484.63;10438095;28;20466;-81
2022/03/14 13:18:55;;;;;;;;;;;;;;;11.10;100.00;99492.38;10439409;28;19999;-82
2022/03/14 13:23:56;;;;;;;;;;;;;;;11.67;99.39;99492.91;10420534;28;19929;-80
2022/03/14 13:29:05;;;;;;;;;;;;;;;12.75;95.42;99492.13;10408646;28;20525;-84
2022/03/14 13:34:13;;;;;;;;;;;;;;;13.97;76.44;99502.34;10448706;28;19939;-83
2022/03/14 13:39:15;;;;;;;;;;;;;;;13.51;86.82;99510.94;10440070;28;19939;-81
2022/03/14 13:44:16;;;;;;;;;;;;;;;12.35;98.59;99518.13;10466627;28;19963;-84
2022/03/14 13:49:16;;;;;;;;;;;;;;;11.67;100.00;99514.41;10473626;28;19929;-82
2022/03/14 13:54:24;;;;;;;;;;;;;;;12.28;100.00;99515.06;10444267;28;19984;-81
2022/03/14 13:59:27;;;;;;;;;;;;;;;13.03;96.65;99517.81;10444255;28;19969;-82
2022/03/14 14:04:31;;;;;;;;;;;;;;;13.84;84.66;99511.38;10462101;28;19939;-83
2022/03/14 14:09:44;;;;;;;;;;;;;;;13.33;76.48;99516.25;10441327;28;19929;-83
2022/03/14 14:14:50;;;;;;;;;;;;;;;13.91;73.80;99527.91;10458481;28;19927;-86
2022/03/14 14:20:12;;;;;;;;;;;;;;;14.16;74.62;99531.75;10420602;28;19959;-83
2022/03/14 14:25:13;;;;;;;;;;;;;;;14.17;67.66;99528.75;10461865;28;19932;-81
2022/03/14 14:30:14;;;;;;;;;;;;;;;13.04;70.42;99529.41;10451560;28;19927;-83
2022/03/14 14:35:15;;;;;;;;;;;;;;;13.04;71.14;99540.97;10453649;28;19935;-81
2022/03/14 14:40:17;;;;;;;;;;;;;;;12.61;75.60;99537.97;10427297;28;19967;-80
2022/03/14 14:45:17;;;;;;;;;;;;;;;12.36;78.21;99531.28;10444261;28;19947;-80
2022/03/14 14:50:18;;;;;;;;;;;;;;;12.29;79.94;99525.53;10432839;28;19971;-81
2022/03/14 14:55:29;;;;;;;;;;;;;;;12.23;79.20;99534.78;10432549;28;19998;-81
2022/03/14 15:00:31;;;;;;;;;;;;;;;12.42;77.96;99527.38;10406869;28;19925;-83
2022/03/14 15:05:33;;;;;;;;;;;;;;;12.24;83.96;99536.38;10424415;23;19993;-83
2022/03/14 15:10:34;;;;;;;;;;;;;;;11.91;79.71;99543.84;10402741;28;19929;-82
2022/03/14 15:15:34;;;;;;;;;;;;;;;11.67;80.88;99542.09;10395116;28;20724;-81
2022/03/14 15:20:38;;;;;;;;;;;;;;;11.44;80.52;99529.66;10396764;28;19932;-78
2022/03/14 15:25:38;;;;;;;;;;;;;;;11.32;81.48;99526.63;10407107;28;19926;-80
2022/03/14 15:30:43;;;;;;;;;;;;;;;11.28;82.97;99528.34;10414403;28;19930;-80
2022/03/14 15:35:44;;;;;;;;;;;;;;;11.27;85.20;99532.91;10425287;28;19952;-82
2022/03/14 15:40:45;;;;;;;;;;;;;;;11.19;88.39;99538.97;10412732;28;19949;-81
2022/03/14 15:45:46;;;;;;;;;;;;;;;11.30;88.06;99540.38;10386486;28;20668;-79
2022/03/14 15:50:47;;;;;;;;;;;;;;;11.02;86.77;99544.09;10404588;28;20247;-79
2022/03/14 15:55:47;;;;;;;;;;;;;;;11.04;85.41;99548.09;10403285;28;19933;-78
2022/03/14 16:00:49;;;;;;;;;;;;;;;11.04;87.82;99558.03;10404192;28;20009;-79
2022/03/14 16:05:50;;;;;;;;;;;;;;;10.90;91.45;99563.38;10377586;28;19968;-81
2022/03/14 16:10:52;;;;;;;;;;;;;;;11.02;91.70;99568.28;10378416;28;19929;-80
2022/03/14 16:16:00;;;;;;;;;;;;;;;10.89;92.65;99572.53;10366191;28;19984;-78
2022/03/14 16:21:03;;;;;;;;;;;;;;;10.69;96.68;99602.34;10366391;28;19933;-78
2022/03/14 16:26:05;;;;;;;;;;;;;;;10.60;94.03;99601.41;10361400;28;19976;-79
2022/03/14 16:31:06;;;;;;;;;;;;;;;10.24;97.72;99607.25;10384901;28;20001;-83
2022/03/14 16:36:06;;;;;;;;;;;;;;;10.20;99.20;99612.38;10393156;28;19952;-80
2022/03/14 16:41:09;;;;;;;;;;;;;;;10.19;97.37;99616.16;10370315;28;19930;-80
2022/03/14 16:46:09;;;;;;;;;;;;;;;10.15;98.43;99625.88;10361301;28;19932;-79
2022/03/14 16:51:12;;;;;;;;;;;;;;;10.09;98.10;99631.56;10361733;28;19953;-78
2022/03/14 16:56:19;;;;;;;;;;;;;;;9.84;100.00;99625.41;10384921;28;19932;-80
2022/03/14 17:01:20;;;;;;;;;;;;;;;9.52;100.00;99619.84;10372543;28;19973;-79
2022/03/14 17:06:20;;;;;;;;;;;;;;;9.12;100.00;99621.78;10362186;28;19933;-80
2022/03/14 17:11:26;;;;;;;;;;;;;;;8.80;100.00;99635.66;10391330;28;19973;-82
2022/03/14 17:16:27;;;;;;;;;;;;;;;8.73;100.00;99632.50;10372845;28;19965;-83
2022/03/14 17:21:28;;;;;;;;;;;;;;;8.44;100.00;99630.53;10355882;28;19929;-81
2022/03/14 17:26:30;;;;;;;;;;;;;;;8.04;100.00;99636.78;10361512;28;19929;-84
2022/03/14 17:31:33;;;;;;;;;;;;;;;7.68;100.00;99649.44;10380764;28;19973;-84
2022/03/14 17:36:36;;;;;;;;;;;;;;;7.61;100.00;99654.28;10384353;28;19926;-82
2022/03/14 17:41:47;;;;;;;;;;;;;;;7.57;100.00;99653.19;10383294;28;20389;-80
2022/03/14 17:46:50;;;;;;;;;;;;;;;7.48;100.00;99649.47;10350717;28;19952;-82
2022/03/14 17:51:55;;;;;;;;;;;;;;;7.09;100.00;99639.34;10386793;28;19930;-80
2022/03/14 17:57:00;;;;;;;;;;;;;;;6.74;100.00;99645.41;10387764;28;19933;-81
2022/03/14 18:02:36;;;;;;;;;;;;;;;6.41;100.00;99654.69;10372748;28;19930;-83
2022/03/14 18:08:34;;;;;;;;;;;;;;;6.01;100.00;99652.63;10561028;22;19944;-79
2022/03/14 18:13:35;;;;;;;;;;;;;;;5.79;100.00;99655.41;10408659;28;20400;-80
2022/03/14 18:18:36;;;;;;;;;;;;;;;5.65;100.00;99655.84;10404725;28;19976;-78
2022/03/14 18:23:36;;;;;;;;;;;;;;;5.54;100.00;99659.50;10424421;28;20000;-81
2022/03/14 18:28:39;;;;;;;;;;;;;;;5.35;100.00;99669.75;10423215;28;19952;-80
2022/03/14 18:33:48;;;;;;;;;;;;;;;5.20;100.00;99682.91;10394595;28;19944;-81
2022/03/14 18:38:49;;;;;;;;;;;;;;;5.07;100.00;99702.78;10400323;28;19920;-80
2022/03/14 18:43:51;;;;;;;;;;;;;;;4.78;100.00;99715.50;10401770;28;19936;-81
2022/03/14 18:48:53;;;;;;;;;;;;;;;4.63;100.00;99719.84;10418404;28;19913;-80
2022/03/14 18:53:58;;;;;;;;;;;;;;;4.65;100.00;99715.88;10408828;28;19924;-84
2022/03/14 18:59:07;;;;;;;;;;;;;;;4.68;100.00;99706.63;10432718;28;19909;-83
2022/03/14 19:04:12;;;;;;;;;;;;;;;4.63;100.00;99712.66;10503568;23;20310;-78
2022/03/14 19:09:16;;;;;;;;;;;;;;;4.38;100.00;99723.78;10364448;28;19985;-81
2022/03/14 19:14:30;;;;;;;;;;;;;;;4.12;100.00;99729.84;10380628;28;19937;-79
2022/03/14 19:19:35;;;;;;;;;;;;;;;3.97;100.00;99727.75;10386294;28;19960;-85
2022/03/14 19:24:43;;;;;;;;;;;;;;;3.84;100.00;99741.38;10392094;28;19929;-83
2022/03/14 19:29:43;;;;;;;;;;;;;;;3.70;100.00;99735.59;10379599;28;19957;-81
2022/03/14 19:34:45;;;;;;;;;;;;;;;3.61;100.00;99737.84;10363597;28;19925;-80
2022/03/14 19:40:04;;;;;;;;;;;;;;;3.60;100.00;99738.88;10393706;28;19925;-84
2022/03/14 19:45:13;;;;;;;;;;;;;;;3.69;100.00;99745.41;10372884;28;19937;-82
2022/03/14 19:50:31;;;;;;;;;;;;;;;3.62;100.00;99768.66;10378164;28;19929;-80
2022/03/14 19:55:32;;;;;;;;;;;;;;;3.47;100.00;99756.97;10377463;28;19956;-83
2022/03/14 20:00:34;;;;;;;;;;;;;;;3.28;100.00;99769.63;10392972;28;19929;-84
2022/03/14 20:05:37;;;;;;;;;;;;;;;3.28;100.00;99773.09;10377741;28;19933;-81
2022/03/14 20:10:48;;;;;;;;;;;;;;;3.17;100.00;99773.16;10359690;28;19960;-81
2022/03/14 20:16:06;;;;;;;;;;;;;;;3.13;100.00;99781.59;10366071;28;19930;-79
2022/03/14 20:21:06;;;;;;;;;;;;;;;2.98;100.00;99791.91;10327500;28;20320;-80
2022/03/14 20:26:07;;;;;;;;;;;;;;;2.72;100.00;99773.88;10342195;28;20017;-80
2022/03/14 20:31:14;;;;;;;;;;;;;;;2.69;100.00;99791.06;10345908;28;19930;-83
2022/03/14 20:36:16;;;;;;;;;;;;;;;2.40;100.00;99792.03;10364077;28;19925;-80
2022/03/14 20:41:32;;;;;;;;;;;;;;;2.33;100.00;99792.16;10365915;28;19909;-83
2022/03/14 20:46:37;;;;;;;;;;;;;;;2.37;100.00;99781.88;10375264;28;19929;-79
2022/03/14 20:51:39;;;;;;;;;;;;;;;2.34;100.00;99780.53;10384766;28;19926;-77
2022/03/14 20:56:40;;;;;;;;;;;;;;;2.15;100.00;99786.97;10360380;28;19914;-77
2022/03/14 21:01:42;;;;;;;;;;;;;;;1.99;100.00;99799.84;10357869;28;20311;-78
2022/03/14 21:06:45;;;;;;;;;;;;;;;1.78;100.00;99795.13;10360376;28;19945;-77
2022/03/14 21:11:45;;;;;;;;;;;;;;;1.81;100.00;99802.59;10331975;28;20034;-77
2022/03/14 21:16:47;;;;;;;;;;;;;;;1.80;100.00;99814.22;10321264;28;20430;-79
2022/03/14 21:21:48;;;;;;;;;;;;;;;1.62;100.00;99809.81;10344392;28;19956;-78
2022/03/14 21:26:50;;;;;;;;;;;;;;;1.64;100.00;99815.69;10337156;28;20452;-83
2022/03/14 21:31:53;;;;;;;;;;;;;;;1.52;100.00;99792.88;10341784;28;19930;-78
2022/03/14 21:36:54;;;;;;;;;;;;;;;1.49;100.00;99798.63;10327740;28;20231;-78
2022/03/14 21:41:55;;;;;;;;;;;;;;;1.35;100.00;99796.16;10331814;28;20415;-78
2022/03/14 21:46:56;;;;;;;;;;;;;;;1.30;100.00;99790.75;10340256;28;19930;-78
2022/03/14 21:52:00;;;;;;;;;;;;;;;1.21;100.00;99780.72;10337080;28;19934;-81
2022/03/14 21:57:02;;;;;;;;;;;;;;;1.13;100.00;99784.47;10322563;28;19930;-78
2022/03/14 22:02:04;;;;;;;;;;;;;;;1.02;100.00;99785.25;10316200;28;20020;-79
2022/03/14 22:07:05;;;;;;;;;;;;;;;0.94;100.00;99786.34;10299754;28;19936;-77
2022/03/14 22:12:08;;;;;;;;;;;;;;;0.84;100.00;99778.16;10321696;28;20346;-78
2022/03/14 22:17:09;;;;;;;;;;;;;;;0.73;100.00;99773.59;10336239;28;20009;-79
2022/03/14 22:22:15;;;;;;;;;;;;;;;0.77;100.00;99790.63;10341622;28;19940;-79
2022/03/14 22:27:18;;;;;;;;;;;;;;;0.68;100.00;99781.38;10331753;28;19921;-78
2022/03/14 22:32:26;;;;;;;;;;;;;;;0.68;100.00;99776.09;10364697;28;19980;-78
2022/03/14 22:37:29;;;;;;;;;;;;;;;0.62;100.00;99775.16;10303205;28;19940;-78
2022/03/14 22:42:29;;;;;;;;;;;;;;;0.64;100.00;99770.47;10322330;28;20032;-79
2022/03/14 22:47:31;;;;;;;;;;;;;;;0.90;100.00;99769.31;10339305;28;19964;-77
2022/03/14 22:52:35;;;;;;;;;;;;;;;0.91;100.00;99767.47;10302736;28;20012;-81
2022/03/14 22:57:37;;;;;;;;;;;;;;;0.94;100.00;99757.28;10324794;28;19930;-81
2022/03/14 23:19:18;;;;;;;;;;;;;;;1.09;100.00;99741.81;10361653;28;19925;-84
2022/03/14 23:24:41;;;;;;;;;;;;;;;1.15;100.00;99734.81;10314565;28;19922;-82
2022/03/14 23:29:42;;;;;;;;;;;;;;;1.08;100.00;99742.03;10343417;28;19955;-81
2022/03/14 23:35:00;;;;;;;;;;;;;;;0.78;100.00;99744.69;10329000;28;20089;-82
2022/03/14 23:40:24;;;;;;;;;;;;;;;0.49;100.00;99747.06;10328796;28;19929;-81
2022/03/14 23:45:58;;;;;;;;;;;;;;;0.44;100.00;99759.31;10367316;28;19925;-84
2022/03/14 23:51:08;;;;;;;;;;;;;;;0.27;100.00;99759.91;10276967;28;19933;-82
2022/03/14 23:56:09;;;;;;;;;;;;;;;0.29;100.00;99754.41;10318385;28;19938;-82
